Time;durP1;ratioP1;P1;durP2;ratioP2;P2;SDS_P1;SDS_P2;PMS_P1;PMS_P2;Temp;Humidity;BMP_temperature;BMP_pressure;BME280_temperature;BME280_humidity;BME280_pressure;Samples;Min_cycle;Max_cycle;Signal;HPM_P1;HPM_P2
2023/05/16 00:01:31;;;;;;;20.63;5.37;;;;;;;8.81;92.52;101722.84;5264843;28;20492;-64
2023/05/16 00:04:02;;;;;;;17.27;4.53;;;;;;;8.83;92.36;101728.06;5266652;28;20474;-65
2023/05/16 00:06:34;;;;;;;20.07;4.97;;;;;;;8.75;93.05;101727.97;5266449;28;20036;-65
2023/05/16 00:09:06;;;;;;;17.73;4.93;;;;;;;8.78;93.10;101729.75;5266331;28;20048;-65
2023/05/16 00:11:37;;;;;;;16.30;4.10;;;;;;;8.72;92.93;101734.00;5264904;28;20102;-65
2023/05/16 00:14:09;;;;;;;17.17;5.40;;;;;;;8.69;92.81;101731.38;5265857;28;20029;-66
2023/05/16 00:16:40;;;;;;;17.40;4.20;;;;;;;8.67;92.49;101738.28;5265002;28;20036;-64
2023/05/16 00:19:12;;;;;;;16.90;5.00;;;;;;;8.57;93.10;101731.25;5266057;28;20033;-65
2023/05/16 00:21:43;;;;;;;22.00;3.87;;;;;;;8.47;93.58;101735.50;5265970;28;20029;-65
2023/05/16 00:24:15;;;;;;;16.27;3.77;;;;;;;8.39;93.67;101732.75;5265928;28;20310;-64
2023/05/16 00:26:47;;;;;;;22.50;4.27;;;;;;;8.37;94.16;101733.59;5265658;28;20479;-65
2023/05/16 00:29:18;;;;;;;19.07;4.17;;;;;;;8.25;94.09;101728.28;5265638;28;20388;-65
2023/05/16 00:31:49;;;;;;;19.33;5.23;;;;;;;8.17;94.26;101725.56;5265925;28;20045;-65
2023/05/16 00:34:21;;;;;;;21.50;4.70;;;;;;;8.10;94.68;101726.34;5265936;28;20025;-65
2023/05/16 00:36:53;;;;;;;33.35;5.78;;;;;;;7.98;94.88;101729.66;5265641;28;20472;-65
2023/05/16 00:39:24;;;;;;;15.67;4.20;;;;;;;7.93;95.36;101728.72;5265802;28;20032;-65
2023/05/16 00:41:56;;;;;;;20.37;5.40;;;;;;;7.80;95.80;101732.88;5265579;28;20033;-66
2023/05/16 00:44:27;;;;;;;16.87;5.27;;;;;;;7.78;96.04;101730.25;5264021;28;20083;-65
2023/05/16 00:46:59;;;;;;;20.03;5.27;;;;;;;7.68;96.30;101731.00;5265877;28;20033;-66
2023/05/16 00:49:31;;;;;;;19.60;5.68;;;;;;;7.63;96.70;101717.06;5265560;28;20036;-65
2023/05/16 00:52:03;;;;;;;22.60;4.67;;;;;;;7.56;96.77;101721.28;5265793;28;20033;-66
2023/05/16 00:54:34;;;;;;;20.00;4.90;;;;;;;7.55;96.74;101726.47;5265294;28;20033;-65
2023/05/16 00:57:07;;;;;;;16.33;4.17;;;;;;;7.49;96.96;101741.09;5265035;28;20041;-65
2023/05/16 00:59:39;;;;;;;22.08;5.32;;;;;;;7.40;97.42;101737.47;5265382;28;20380;-66
2023/05/16 01:02:11;;;;;;;17.98;5.38;;;;;;;7.32;97.52;101729.56;5265263;28;20033;-65
2023/05/16 01:04:43;;;;;;;;;;;;;;;7.33;97.52;101736.53;5265697;28;20051;-65
2023/05/16 01:07:14;;;;;;;17.95;4.18;;;;;;;7.26;98.11;101735.56;5263996;28;19984;-66
2023/05/16 01:09:46;;;;;;;19.30;4.90;;;;;;;7.24;97.98;101737.22;5244526;28;20033;-65
2023/05/16 01:12:45;;;;;;;17.83;3.93;;;;;;;7.19;98.44;101740.59;5274976;28;20076;-65
2023/05/16 01:15:24;;;;;;;18.05;4.38;;;;;;;7.12;98.23;101737.03;5233273;28;20081;-65
2023/05/16 01:18:05;;;;;;;22.90;4.63;;;;;;;7.04;98.63;101746.41;5244592;28;20208;-66
2023/05/16 01:20:42;;;;;;;19.70;3.95;;;;;;;7.02;98.68;101748.09;5244331;28;20117;-65
2023/05/16 01:23:32;;;;;;;23.05;4.93;;;;;;;6.97;98.63;101745.44;5244318;28;20465;-64
2023/05/16 01:26:18;;;;;;;20.88;5.72;;;;;;;6.91;98.64;101747.91;5244164;28;20061;-64
2023/05/16 01:28:51;;;;;;;17.33;3.85;;;;;;;6.87;98.83;101751.28;5244120;28;20365;-65
2023/05/16 01:31:23;;;;;;;17.38;4.15;;;;;;;6.80;99.06;101747.72;5242810;28;20029;-64
2023/05/16 01:33:54;;;;;;;12.93;3.80;;;;;;;6.75;99.11;101737.25;5243825;28;20120;-64
2023/05/16 01:36:40;;;;;;;18.27;4.43;;;;;;;6.79;99.04;101745.97;5242993;28;20029;-66
2023/05/16 01:39:40;;;;;;;17.92;3.58;;;;;;;6.73;99.17;101748.47;5243737;28;20381;-64
2023/05/16 01:42:14;;;;;;;19.58;4.40;;;;;;;6.70;99.22;101751.00;5243866;28;20021;-65
2023/05/16 01:44:45;;;;;;;17.85;3.90;;;;;;;6.65;99.45;101752.59;5243224;28;20052;-65
2023/05/16 01:47:19;;;;;;;23.10;4.03;;;;;;;6.60;99.37;101747.34;5243733;28;20026;-66
2023/05/16 01:49:59;;;;;;;18.50;4.38;;;;;;;6.55;99.45;101752.44;5244037;28;20357;-65
2023/05/16 01:52:37;;;;;;;15.60;3.72;;;;;;;6.54;99.44;101758.47;5263865;28;20100;-64
2023/05/16 01:55:13;;;;;;;20.48;4.07;;;;;;;6.49;99.30;101762.69;5263588;28;20056;-66
2023/05/16 01:57:46;;;;;;;18.42;4.15;;;;;;;6.46;99.92;101761.75;5263907;28;20040;-65
2023/05/16 02:00:19;;;;;;;19.20;4.78;;;;;;;6.45;100.00;101765.19;5263810;28;20434;-65
2023/05/16 02:02:51;;;;;;;14.70;3.53;;;;;;;6.38;99.93;101759.00;5264386;28;20090;-65
2023/05/16 02:05:22;;;;;;;17.77;3.67;;;;;;;6.38;99.76;101769.38;5264116;28;20032;-65
2023/05/16 02:07:54;;;;;;;21.17;3.80;;;;;;;6.32;99.73;101757.16;5263952;28;20033;-66
2023/05/16 02:10:26;;;;;;;23.83;4.37;;;;;;;6.31;99.64;101767.47;5263983;28;20496;-66
2023/05/16 02:12:57;;;;;;;18.13;4.83;;;;;;;6.25;99.88;101770.84;5263478;28;20029;-64
2023/05/16 02:15:29;;;;;;;22.63;5.67;;;;;;;6.24;100.00;101778.56;5263856;28;20036;-66
2023/05/16 02:18:00;;;;;;;17.67;3.83;;;;;;;6.23;100.00;101775.13;5263769;28;20036;-66
2023/05/16 02:20:32;;;;;;;13.83;3.80;;;;;;;6.21;100.00;101776.78;5263849;28;20033;-65
2023/05/16 02:23:03;;;;;;;15.53;4.70;;;;;;;6.18;100.00;101766.34;5262404;28;20542;-65
2023/05/16 02:25:35;;;;;;;17.57;4.43;;;;;;;6.13;100.00;101768.84;5263616;28;20032;-65
2023/05/16 02:28:06;;;;;;;17.63;3.40;;;;;;;6.13;100.00;101773.16;5263589;28;20376;-66
2023/05/16 02:30:37;;;;;;;13.90;3.43;;;;;;;6.06;100.00;101766.97;5263549;28;20044;-66
2023/05/16 02:33:10;;;;;;;13.87;3.33;;;;;;;6.02;100.00;101765.16;5263506;28;20032;-65
2023/05/16 02:35:41;;;;;;;;;;;;;;;6.01;100.00;101776.34;5263931;28;20040;-65
2023/05/16 02:38:16;;;;;;;20.48;4.20;;;;;;;5.97;100.00;101769.34;5263387;28;19921;-65
2023/05/16 02:40:47;;;;;;;17.52;5.68;;;;;;;5.97;100.00;101778.00;5263171;28;20037;-66
2023/05/16 02:43:19;;;;;;;20.77;4.33;;;;;;;5.97;100.00;101779.69;5262958;28;20542;-65
2023/05/16 02:45:51;;;;;;;14.70;4.20;;;;;;;5.94;100.00;101783.09;5263570;28;20112;-64
2023/05/16 02:48:22;;;;;;;15.33;4.40;;;;;;;5.91;100.00;101782.13;5262953;28;20112;-65
2023/05/16 02:50:53;;;;;;;15.20;3.57;;;;;;;5.90;100.00;101794.19;5261892;28;20044;-65
2023/05/16 02:53:25;;;;;;;19.03;3.83;;;;;;;5.93;100.00;101793.41;5263083;28;20033;-66
2023/05/16 02:55:56;;;;;;;18.43;4.70;;;;;;;5.94;100.00;101798.63;5263018;28;20579;-65
2023/05/16 02:58:27;;;;;;;21.80;3.83;;;;;;;5.91;100.00;101795.94;5263044;28;20037;-66
2023/05/16 03:00:59;;;;;;;16.60;4.53;;;;;;;5.92;100.00;101807.16;5262901;28;20032;-66
2023/05/16 03:03:30;;;;;;;15.97;3.87;;;;;;;5.84;100.00;101806.97;5261813;28;20069;-65
2023/05/16 03:06:02;;;;;;;18.83;3.53;;;;;;;5.82;100.00;101811.25;5262951;28;20060;-65
2023/05/16 03:08:34;;;;;;;20.00;4.10;;;;;;;5.76;100.00;101817.16;5262853;28;20121;-65
2023/05/16 03:11:05;;;;;;;15.52;4.18;;;;;;;5.72;100.00;101809.31;5262870;28;20102;-65
2023/05/16 03:13:36;;;;;;;17.47;4.40;;;;;;;5.74;100.00;101825.72;5261148;28;20118;-64
2023/05/16 03:16:08;;;;;;;17.93;4.03;;;;;;;5.70;100.00;101821.31;5263082;28;20049;-66
2023/05/16 03:18:39;;;;;;;19.80;3.40;;;;;;;5.67;100.00;101819.53;5261640;28;20035;-65
2023/05/16 03:21:10;;;;;;;19.07;4.73;;;;;;;5.67;100.00;101829.88;5262647;28;20064;-66
2023/05/16 03:23:42;;;;;;;16.93;4.83;;;;;;;5.62;100.00;101822.00;5295072;28;20119;-66
2023/05/16 03:26:13;;;;;;;15.40;4.97;;;;;;;5.61;100.00;101812.50;5262686;28;20033;-65
2023/05/16 03:28:45;;;;;;;15.30;4.53;;;;;;;5.58;100.00;101816.72;5262625;28;20119;-67
2023/05/16 03:31:16;;;;;;;21.20;4.07;;;;;;;5.57;100.00;101817.56;5262697;28;20036;-66
2023/05/16 03:33:48;;;;;;;21.00;5.30;;;;;;;5.54;100.00;101827.81;5262719;28;20124;-65
2023/05/16 03:36:21;;;;;;;21.43;4.53;;;;;;;5.54;100.00;101827.81;5267592;28;20083;-66
2023/05/16 03:38:52;;;;;;;15.13;3.95;;;;;;;5.51;100.00;101833.81;5269373;28;20041;-65
2023/05/16 03:41:25;;;;;;;25.43;4.77;;;;;;;5.46;100.00;101830.25;5269435;28;20542;-64
2023/05/16 03:43:56;;;;;;;15.10;4.15;;;;;;;5.39;100.00;101824.00;5268979;28;20075;-65
2023/05/16 03:46:28;;;;;;;18.00;4.13;;;;;;;5.38;100.00;101836.94;5301806;28;20064;-64
2023/05/16 03:48:59;;;;;;;17.13;3.90;;;;;;;5.39;100.00;101844.69;5269370;28;20111;-66
2023/05/16 03:51:32;;;;;;;15.50;3.83;;;;;;;5.30;100.00;101845.34;5301964;28;20037;-66
2023/05/16 03:54:03;;;;;;;16.73;4.07;;;;;;;5.24;100.00;101839.16;5269477;28;20041;-64
2023/05/16 03:56:35;;;;;;;13.23;4.33;;;;;;;5.26;100.00;101842.63;5268763;28;20029;-66
2023/05/16 03:59:06;;;;;;;21.67;5.00;;;;;;;5.26;100.00;101855.56;5269035;28;20539;-64
2023/05/16 04:01:37;;;;;;;23.90;5.70;;;;;;;5.23;100.00;101842.56;5284360;28;20083;-66
2023/05/16 04:04:09;;;;;;;14.03;3.33;;;;;;;5.25;100.00;101852.13;5268963;28;20120;-66
2023/05/16 04:06:40;;;;;;;16.13;4.73;;;;;;;5.19;100.00;101845.91;5269008;28;20108;-66
2023/05/16 04:09:12;;;;;;;19.20;4.30;;;;;;;5.18;100.00;101854.50;5268726;28;20051;-65
2023/05/16 04:11:44;;;;;;;20.47;4.30;;;;;;;5.19;100.00;101856.25;5268980;28;20033;-65
2023/05/16 04:14:16;;;;;;;23.73;6.38;;;;;;;5.17;100.00;101856.22;5268527;28;20135;-64
2023/05/16 04:16:47;;;;;;;14.77;3.97;;;;;;;5.17;100.00;101857.91;5268883;28;20116;-65
2023/05/16 04:19:18;;;;;;;19.20;4.53;;;;;;;5.17;100.00;101858.78;5268883;28;20036;-64
2023/05/16 04:21:51;;;;;;;18.70;3.93;;;;;;;5.18;100.00;101859.66;5269480;28;20033;-65
2023/05/16 04:24:25;;;;;;;18.38;4.55;;;;;;;5.18;100.00;101865.69;5268853;28;20114;-64
2023/05/16 04:26:56;;;;;;;23.98;4.60;;;;;;;5.19;100.00;101870.03;5268753;28;20037;-65
2023/05/16 04:29:28;;;;;;;19.87;3.90;;;;;;;5.20;100.00;101864.06;5268775;28;20043;-65
2023/05/16 04:31:59;;;;;;;17.93;4.37;;;;;;;5.19;100.00;101869.19;5267490;28;20468;-65
2023/05/16 04:34:32;;;;;;;18.20;4.43;;;;;;;5.23;100.00;101871.00;5268868;28;20041;-65
2023/05/16 04:37:06;;;;;;;22.30;4.85;;;;;;;5.28;100.00;101872.88;5268688;28;20496;-65
2023/05/16 04:39:38;;;;;;;18.23;3.90;;;;;;;5.33;100.00;101885.94;5268321;28;20037;-65
2023/05/16 04:42:09;;;;;;;16.30;4.40;;;;;;;5.35;100.00;101878.22;5268698;28;20091;-65
2023/05/16 04:44:41;;;;;;;16.80;4.50;;;;;;;5.36;100.00;101887.72;5268163;28;20056;-64
2023/05/16 04:47:13;;;;;;;28.47;6.10;;;;;;;5.37;100.00;101889.47;5298140;28;20033;-64
2023/05/16 04:49:44;;;;;;;16.70;4.60;;;;;;;5.39;100.00;101888.66;5264995;28;20028;-64
2023/05/16 04:52:16;;;;;;;17.17;5.10;;;;;;;5.41;100.00;101894.75;5265161;28;20451;-64
2023/05/16 04:54:51;;;;;;;19.20;3.97;;;;;;;5.42;100.00;101893.03;5263889;28;20033;-66
2023/05/16 04:57:22;;;;;;;21.40;5.90;;;;;;;5.46;100.00;101890.59;5265526;28;20091;-66
2023/05/16 04:59:54;;;;;;;18.67;5.77;;;;;;;5.56;100.00;101902.03;5265016;28;20025;-63
2023/05/16 05:02:26;;;;;;;15.37;4.00;;;;;;;5.64;100.00;101912.59;5265088;28;20091;-65
2023/05/16 05:04:57;;;;;;;18.30;4.13;;;;;;;5.72;100.00;101908.47;5265215;28;20029;-65
2023/05/16 05:07:28;;;;;;;29.10;5.03;;;;;;;5.80;100.00;101911.28;5264629;28;20762;-63
2023/05/16 05:10:00;;;;;;;21.27;3.87;;;;;;;5.84;100.00;101906.22;5264915;28;20044;-66
2023/05/16 05:12:31;;;;;;;20.80;5.90;;;;;;;5.88;100.00;101904.56;5264961;28;20033;-66
2023/05/16 05:15:03;;;;;;;17.87;3.77;;;;;;;5.96;100.00;101908.25;5264856;28;20514;-65
2023/05/16 05:17:36;;;;;;;18.50;4.22;;;;;;;6.05;100.00;101899.81;5264776;28;20033;-65
2023/05/16 05:20:09;;;;;;;16.33;4.50;;;;;;;6.12;100.00;101903.44;5264344;28;20029;-66
2023/05/16 05:22:40;;;;;;;23.30;5.15;;;;;;;6.15;100.00;101899.22;5264591;28;20083;-66
2023/05/16 05:25:12;;;;;;;14.10;4.37;;;;;;;6.30;100.00;101913.34;5264538;28;20421;-64
2023/05/16 05:27:43;;;;;;;23.60;5.53;;;;;;;6.32;100.00;101912.53;5296819;28;20033;-65
2023/05/16 05:30:15;;;;;;;17.77;4.90;;;;;;;6.44;100.00;101918.81;5264090;28;20472;-65
2023/05/16 05:32:46;;;;;;;21.13;4.03;;;;;;;6.51;100.00;101912.97;5296767;28;20029;-65
2023/05/16 05:35:17;;;;;;;15.93;4.40;;;;;;;6.62;100.00;101915.75;5264539;28;20029;-64
2023/05/16 05:37:49;;;;;;;16.30;4.07;;;;;;;6.70;100.00;101911.66;5264650;28;20049;-64
2023/05/16 05:40:20;;;;;;;17.53;3.97;;;;;;;6.82;99.39;101930.03;5264545;28;20487;-65
2023/05/16 05:42:51;;;;;;;16.60;5.20;;;;;;;6.96;97.95;101932.06;5263907;28;20068;-64
2023/05/16 05:45:23;;;;;;;19.07;3.70;;;;;;;7.05;97.71;101930.53;5264245;28;20086;-64
2023/05/16 05:47:54;;;;;;;12.93;4.00;;;;;;;7.16;96.37;101922.94;5263864;28;20033;-65
2023/05/16 05:50:26;;;;;;;13.93;4.03;;;;;;;7.22;96.19;101927.38;5296722;28;20133;-65
2023/05/16 05:52:57;;;;;;;18.67;4.37;;;;;;;7.35;95.71;101938.88;5263654;28;20112;-65
2023/05/16 05:55:28;;;;;;;15.73;4.33;;;;;;;7.47;94.38;101942.56;5264057;28;20025;-65
2023/05/16 05:58:00;;;;;;;16.43;4.03;;;;;;;7.58;93.72;101934.97;5263607;28;20048;-65
2023/05/16 06:00:31;;;;;;;14.83;4.03;;;;;;;7.63;93.60;101943.72;5263761;28;20033;-65
2023/05/16 06:03:03;;;;;;;18.07;4.53;;;;;;;7.72;93.60;101944.72;5263583;28;20068;-65
2023/05/16 06:05:35;;;;;;;19.05;4.05;;;;;;;7.83;92.89;101945.78;5295721;28;20448;-64
2023/05/16 06:08:06;;;;;;;18.40;3.33;;;;;;;7.87;92.45;101949.31;5263612;28;20121;-66
2023/05/16 06:10:38;;;;;;;15.73;4.47;;;;;;;7.95;91.31;101947.72;5264643;28;20539;-65
2023/05/16 06:13:09;;;;;;;13.33;3.77;;;;;;;7.97;90.71;101946.00;5262884;28;20223;-66
2023/05/16 06:15:40;;;;;;;18.00;3.87;;;;;;;8.06;91.00;101955.69;5295830;28;20357;-65
2023/05/16 06:18:12;;;;;;;19.37;3.90;;;;;;;8.13;89.63;101963.59;5263608;28;20029;-66
2023/05/16 06:20:43;;;;;;;14.10;3.03;;;;;;;8.19;89.37;101958.50;5263340;28;20037;-65
2023/05/16 06:23:14;;;;;;;14.30;3.57;;;;;;;8.27;89.55;101966.41;5263490;28;20033;-65
2023/05/16 06:25:46;;;;;;;16.07;4.17;;;;;;;8.36;88.18;101974.34;5295380;28;20041;-65
2023/05/16 06:28:17;;;;;;;21.37;4.60;;;;;;;8.36;88.24;101968.28;5263384;28;20443;-65
2023/05/16 06:30:50;;;;;;;9.13;2.77;;;;;;;8.51;86.98;101967.66;5263465;28;20051;-65
2023/05/16 06:33:22;;;;;;;17.88;3.90;;;;;;;8.59;86.23;101968.66;5263182;28;20350;-64
2023/05/16 06:35:53;;;;;;;10.57;3.67;;;;;;;8.64;84.83;101966.13;5263251;28;20036;-64
2023/05/16 06:38:24;;;;;;;16.00;3.37;;;;;;;8.71;85.31;101963.63;5263208;28;20091;-65
2023/05/16 06:40:56;;;;;;;10.60;4.67;;;;;;;8.82;85.04;101975.91;5262918;28;20025;-66
2023/05/16 06:43:27;;;;;;;13.33;3.40;;;;;;;8.84;83.53;101968.97;5262615;28;20392;-64
2023/05/16 06:45:58;;;;;;;17.40;3.67;;;;;;;8.91;84.02;101969.09;5263046;28;20028;-64
2023/05/16 06:48:30;;;;;;;15.10;3.60;;;;;;;9.09;82.98;101971.03;5263156;28;20488;-64
2023/05/16 06:51:01;;;;;;;14.80;4.00;;;;;;;9.22;83.03;101972.06;5262761;28;20036;-66
2023/05/16 06:53:33;;;;;;;14.50;3.33;;;;;;;9.34;80.65;101979.16;5262782;28;20039;-65
2023/05/16 06:56:04;;;;;;;12.53;3.13;;;;;;;9.52;80.90;101972.44;5263480;28;20032;-64
2023/05/16 06:58:36;;;;;;;13.83;3.13;;;;;;;9.79;80.89;101975.31;5262758;28;20025;-65
2023/05/16 07:01:07;;;;;;;11.80;3.40;;;;;;;9.96;76.32;101982.38;5262889;28;20025;-67
2023/05/16 07:03:38;;;;;;;16.47;3.73;;;;;;;10.12;77.09;101978.19;5263618;28;20036;-66
2023/05/16 07:06:10;;;;;;;11.33;2.70;;;;;;;10.10;75.37;101983.38;5262932;28;20029;-65
2023/05/16 07:08:41;;;;;;;11.57;2.73;;;;;;;10.20;74.27;101982.59;5261486;28;20025;-66
2023/05/16 07:11:12;;;;;;;11.00;2.97;;;;;;;10.42;75.16;101966.25;5261728;28;20048;-64
2023/05/16 07:13:44;;;;;;;15.43;3.17;;;;;;;10.37;72.83;101979.28;5262123;28;20396;-66
2023/05/16 07:16:15;;;;;;;6.53;2.37;;;;;;;10.24;71.74;101988.72;5262550;28;20441;-65
2023/05/16 07:18:47;;;;;;;9.57;2.60;;;;;;;10.52;73.52;101989.81;5262696;28;20029;-66
2023/05/16 07:21:18;;;;;;;11.10;3.27;;;;;;;10.66;71.11;101989.91;5294478;28;20032;-66
2023/05/16 07:23:49;;;;;;;14.00;3.07;;;;;;;10.89;71.33;101990.03;5278058;28;20377;-64
2023/05/16 07:26:22;;;;;;;8.40;2.73;;;;;;;10.89;68.37;101978.72;5262222;28;20449;-65
2023/05/16 07:28:54;;;;;;;6.80;2.38;;;;;;;11.20;67.73;101984.09;5262475;28;20039;-65
2023/05/16 07:31:25;;;;;;;11.23;2.50;;;;;;;11.49;66.81;101992.91;5294689;28;20124;-65
2023/05/16 07:33:56;;;;;;;9.20;2.60;;;;;;;11.57;63.82;102000.72;5262779;28;20033;-64
2023/05/16 07:36:28;;;;;;;9.77;1.97;;;;;;;11.55;60.88;101992.03;5262651;28;20024;-65
2023/05/16 07:38:59;;;;;;;8.40;2.20;;;;;;;11.75;61.96;102004.25;5261869;28;20128;-64
2023/05/16 07:41:31;;;;;;;8.17;2.30;;;;;;;11.53;60.53;102001.59;5262283;28;20048;-64
2023/05/16 07:44:02;;;;;;;9.03;2.43;;;;;;;11.64;60.52;101993.78;5260874;28;20033;-65
2023/05/16 07:46:34;;;;;;;10.20;3.40;;;;;;;11.64;59.85;101997.28;5262284;28;20095;-64
2023/05/16 07:49:05;;;;;;;6.17;2.00;;;;;;;11.38;59.43;101993.72;5262446;28;20037;-65
2023/05/16 07:51:36;;;;;;;8.40;2.20;;;;;;;11.61;60.47;102002.50;5261158;28;20037;-65
2023/05/16 07:54:08;;;;;;;7.27;1.57;;;;;;;11.82;59.59;101998.19;5262175;28;20471;-66
2023/05/16 07:56:39;;;;;;;7.93;1.90;;;;;;;11.58;59.64;102002.47;5262437;28;20123;-65
2023/05/16 07:59:11;;;;;;;6.77;2.33;;;;;;;11.33;58.83;102004.13;5262177;28;20083;-66
2023/05/16 08:01:42;;;;;;;12.27;2.40;;;;;;;11.52;61.29;101999.84;5262166;28;20043;-64
2023/05/16 08:04:13;;;;;;;8.27;1.97;;;;;;;11.42;61.79;102004.16;5262105;28;20040;-65
2023/05/16 08:06:45;;;;;;;6.60;2.00;;;;;;;11.28;62.00;102001.50;5262009;28;20079;-65
2023/05/16 08:09:16;;;;;;;6.30;2.23;;;;;;;11.29;61.55;102005.88;5262145;28;20073;-65
2023/05/16 08:11:48;;;;;;;11.87;2.13;;;;;;;11.32;63.13;102002.41;5262004;28;20044;-66
2023/05/16 08:14:19;;;;;;;5.23;2.13;;;;;;;11.32;63.89;101999.81;5261569;28;20029;-66
2023/05/16 08:16:50;;;;;;;10.37;2.17;;;;;;;10.97;65.17;102013.56;5261596;28;20040;-65
2023/05/16 08:19:22;;;;;;;12.37;2.27;;;;;;;11.10;66.43;102011.88;5262133;28;20040;-65
2023/05/16 08:21:53;;;;;;;8.37;2.67;;;;;;;11.47;66.09;102004.19;5263681;28;20112;-64
2023/05/16 08:24:25;;;;;;;10.53;2.43;;;;;;;11.85;63.57;102006.91;5265796;28;20510;-64
2023/05/16 08:26:56;;;;;;;9.77;2.30;;;;;;;12.14;61.60;102015.66;5266194;28;20083;-65
2023/05/16 08:29:27;;;;;;;8.70;2.10;;;;;;;12.32;60.09;102013.06;5265494;28;20033;-65
2023/05/16 08:32:00;;;;;;;8.90;2.40;;;;;;;12.21;59.32;102014.78;5265900;28;20075;-64
2023/05/16 08:34:32;;;;;;;10.35;2.28;;;;;;;12.07;59.70;102011.31;5265921;28;20037;-65
2023/05/16 08:37:04;;;;;;;8.40;2.47;;;;;;;12.26;61.37;101997.34;5265798;28;20056;-65
2023/05/16 08:39:37;;;;;;;9.47;1.93;;;;;;;12.18;58.71;101993.88;5265950;28;20465;-64
2023/05/16 08:42:08;;;;;;;10.52;2.10;;;;;;;12.64;57.21;102004.31;5265991;28;20033;-66
2023/05/16 08:44:40;;;;;;;12.97;2.13;;;;;;;12.93;58.61;101995.50;5265179;28;20112;-65
2023/05/16 08:47:17;;;;;;;9.30;2.57;;;;;;;13.41;59.70;101998.84;5265738;28;20029;-66
2023/05/16 08:49:50;;;;;;;9.45;2.30;;;;;;;13.65;56.30;101991.69;5265403;28;20374;-64
2023/05/16 08:52:28;;;;;;;7.80;2.40;;;;;;;13.69;53.56;101993.44;5298121;28;20514;-65
2023/05/16 08:55:06;;;;;;;7.40;2.63;;;;;;;13.40;55.77;101989.22;5264999;28;20043;-64
2023/05/16 08:57:38;;;;;;;9.15;2.80;;;;;;;12.74;55.17;101992.94;5265307;28;20054;-65
2023/05/16 09:00:10;;;;;;;8.93;2.67;;;;;;;12.84;58.13;101992.91;5265171;28;20128;-64
2023/05/16 09:02:45;;;;;;;11.18;3.05;;;;;;;12.58;56.20;101992.09;5265214;28;20029;-65
2023/05/16 09:05:17;;;;;;;7.85;2.40;;;;;;;12.35;56.56;102007.81;5264907;28;20025;-65
2023/05/16 09:07:48;;;;;;;10.40;2.20;;;;;;;12.65;59.28;101994.69;5263751;28;20384;-65
2023/05/16 09:10:20;;;;;;;6.87;2.77;;;;;;;12.81;58.99;101995.53;5297388;28;20039;-65
2023/05/16 09:12:51;;;;;;;7.93;2.53;;;;;;;13.03;58.68;101986.75;5264532;28;20036;-65
2023/05/16 09:15:30;;;;;;;12.67;1.80;;;;;;;12.93;56.89;101995.50;5264988;28;20044;-65
2023/05/16 09:18:02;;;;;;;7.32;2.50;;;;;;;12.86;59.77;101999.00;5265461;28;20461;-64
2023/05/16 09:20:33;;;;;;;7.72;2.85;;;;;;;13.00;58.20;101998.97;5264750;28;20029;-64
2023/05/16 09:23:05;;;;;;;6.30;2.50;;;;;;;13.04;57.88;101998.97;5264696;28;20033;-64
2023/05/16 09:25:38;;;;;;;9.10;2.33;;;;;;;13.39;55.96;101999.72;5280251;28;20061;-64
2023/05/16 09:28:11;;;;;;;7.60;1.80;;;;;;;12.93;54.53;102005.97;5264641;28;20028;-65
2023/05/16 09:30:45;;;;;;;7.75;2.95;;;;;;;13.17;54.96;101998.91;5264702;28;20384;-64
2023/05/16 09:33:17;;;;;;;12.02;2.67;;;;;;;13.40;54.49;101996.22;5263781;28;20387;-65
2023/05/16 09:35:59;;;;;;;6.33;2.13;;;;;;;14.01;55.50;101992.34;5264539;28;20124;-65
2023/05/16 09:38:30;;;;;;;9.50;2.03;;;;;;;14.29;53.46;101994.72;5264530;28;20131;-64
2023/05/16 09:41:02;;;;;;;7.03;2.53;;;;;;;14.42;50.10;101996.34;5264387;28;20556;-64
2023/05/16 09:43:37;;;;;;;5.53;1.77;;;;;;;14.79;49.24;101997.75;5264287;28;20033;-63
2023/05/16 09:46:15;;;;;;;6.78;2.83;;;;;;;15.12;47.01;101988.63;5264369;28;20033;-65
2023/05/16 09:48:47;;;;;;;7.68;2.15;;;;;;;16.36;46.16;101999.06;5263908;28;20025;-65
2023/05/16 09:51:21;;;;;;;10.83;2.33;;;;;;;16.49;44.36;101997.09;5264238;28;20487;-66
2023/05/16 09:53:53;;;;;;;7.70;2.03;;;;;;;15.55;45.86;101998.53;5263990;28;20029;-65
2023/05/16 09:56:24;;;;;;;9.37;2.17;;;;;;;14.77;48.12;102006.50;5264031;28;20087;-64
2023/05/16 09:58:56;;;;;;;6.07;1.90;;;;;;;14.18;50.75;101997.44;5264540;28;20033;-65
2023/05/16 10:01:27;;;;;;;6.00;1.73;;;;;;;14.48;50.01;102005.91;5263930;28;20029;-64
2023/05/16 10:03:59;;;;;;;6.30;1.80;;;;;;;16.18;47.35;101988.84;5263708;28;20029;-64
2023/05/16 10:06:30;;;;;;;8.33;2.30;;;;;;;17.21;45.48;101988.69;5263920;28;20044;-65
2023/05/16 10:09:02;;;;;;;6.13;2.13;;;;;;;19.02;41.03;101985.13;5264430;28;20160;-65
2023/05/16 10:11:34;;;;;;;7.30;2.10;;;;;;;19.99;36.99;101984.78;5263352;28;20029;-65
2023/05/16 10:14:08;;;;;;;6.13;1.55;;;;;;;19.43;36.54;101983.00;5261964;28;20430;-65
2023/05/16 10:16:42;;;;;;;5.97;2.05;;;;;;;18.27;37.85;101988.00;5263199;28;20036;-65
2023/05/16 10:19:15;;;;;;;5.80;1.88;;;;;;;16.19;39.29;101988.81;5263724;28;20032;-66
2023/05/16 10:21:51;;;;;;;7.03;2.30;;;;;;;16.94;40.17;101973.44;5295618;28;20095;-64
2023/05/16 10:24:30;;;;;;;7.13;2.30;;;;;;;18.51;36.82;101982.06;5263671;28;20028;-63
2023/05/16 10:27:03;;;;;;;8.25;1.75;;;;;;;19.56;36.31;101989.66;5263319;28;20036;-66
2023/05/16 10:29:36;;;;;;;6.50;2.10;;;;;;;20.31;33.16;101988.97;5263476;28;20067;-65
2023/05/16 10:32:09;;;;;;;5.65;1.80;;;;;;;19.09;35.75;101982.25;5263186;28;20036;-66
2023/05/16 10:34:41;;;;;;;;;;;;;;;17.66;36.94;101986.81;5263368;28;20044;-66
2023/05/16 10:37:12;;;;;;;5.00;1.63;;;;;;;16.58;38.60;101985.50;5263106;28;19920;-66
2023/05/16 10:39:45;;;;;;;5.53;1.63;;;;;;;17.76;39.79;101983.94;5263047;28;20055;-65
2023/05/16 10:42:18;;;;;;;3.88;1.52;;;;;;;19.28;35.36;101979.03;5262906;28;20120;-65
2023/05/16 10:44:54;;;;;;;7.80;1.95;;;;;;;20.83;34.52;101988.06;5260503;28;20108;-64
2023/05/16 10:47:25;;;;;;;5.93;1.65;;;;;;;20.68;32.38;101982.41;5263347;28;20029;-65
2023/05/16 10:49:56;;;;;;;5.03;1.97;;;;;;;19.46;33.82;101985.53;5263101;28;20033;-64
2023/05/16 10:52:33;;;;;;;9.30;1.97;;;;;;;17.64;36.65;101982.47;5262916;28;20495;-65
2023/05/16 10:55:05;;;;;;;5.72;2.17;;;;;;;16.37;38.26;101976.25;5263440;28;20101;-65
2023/05/16 10:57:37;;;;;;;7.00;1.90;;;;;;;18.34;38.43;101982.53;5262701;28;20060;-64
2023/05/16 11:00:22;;;;;;;7.90;2.15;;;;;;;20.37;34.30;101978.19;5294394;28;20086;-66
2023/05/16 11:03:04;;;;;;;9.65;1.90;;;;;;;21.24;33.28;101985.66;5262735;28;20060;-64
2023/05/16 11:05:36;;;;;;;4.70;2.10;;;;;;;22.27;30.70;101978.84;5262788;28;20372;-64
2023/05/16 11:08:07;;;;;;;5.43;1.90;;;;;;;20.32;32.70;101979.28;5262577;28;20109;-67
2023/05/16 11:10:39;;;;;;;6.30;1.90;;;;;;;18.21;35.90;101984.63;5262555;28;20415;-65
2023/05/16 11:13:10;;;;;;;6.40;2.30;;;;;;;16.96;39.66;101983.94;5261979;28;20028;-65
2023/05/16 11:15:42;;;;;;;6.53;2.23;;;;;;;17.85;39.06;101986.34;5262611;28;20546;-65
2023/05/16 11:18:15;;;;;;;6.30;2.10;;;;;;;18.42;36.15;101984.97;5262347;28;20057;-66
2023/05/16 11:20:51;;;;;;;6.22;2.08;;;;;;;19.39;34.99;101976.09;5262385;28;20498;-65
2023/05/16 11:23:25;;;;;;;5.82;1.98;;;;;;;18.83;34.62;101982.09;5260718;28;20037;-65
2023/05/16 11:25:59;;;;;;;6.00;1.88;;;;;;;19.48;34.80;101971.38;5262365;28;20033;-66
2023/05/16 11:28:31;;;;;;;8.95;2.08;;;;;;;19.61;36.00;101979.78;5262294;28;20041;-65
2023/05/16 11:31:04;;;;;;;4.50;1.90;;;;;;;18.82;36.19;101985.63;5262424;28;20491;-65
2023/05/16 11:33:38;;;;;;;9.98;2.47;;;;;;;17.93;36.92;101994.13;5262716;28;20384;-64
2023/05/16 11:36:11;;;;;;;6.18;1.88;;;;;;;20.43;34.17;101985.06;5262220;28;20074;-65
2023/05/16 11:38:43;;;;;;;8.95;2.63;;;;;;;21.19;32.90;101977.88;5261916;28;20440;-65
2023/05/16 11:41:16;;;;;;;6.00;2.13;;;;;;;20.57;33.11;101979.25;5261912;28;20041;-65
2023/05/16 11:43:47;;;;;;;8.45;2.03;;;;;;;19.60;35.39;101985.13;5262152;28;20047;-66
2023/05/16 11:46:19;;;;;;;7.43;2.23;;;;;;;18.66;37.14;101986.09;5262405;28;20377;-65